Terminal Aerodrome Forecast
Issued by NWS Spokane, WA

Home | Current Version | Previous Version | Text Only | Print | Product List | Glossary On
Versions: 1 2 3 4 5 6 7 8 9 10 11 12 13 14 15 16 17 18 19 20 21 22 23 24 25 26 27 28 29 30 31 32 33 34 35 36 37 38 39 40 41 42 43 44 45
136
FTUS46 KOTX 241723
TAFGEG
TAF
KGEG 241723Z 2418/2518 16004KT P6SM -SHRA SCT015 SCT060 BKN090
     FM242000 20005KT P6SM SCT050 BKN090
     FM242300 22005KT P6SM VCSH BKN050 BKN100
     FM250200 20005KT P6SM SCT060=

USA.gov is the U.S. government's official web portal to all federal, state and local government web resources and services.